This is the latest recevied weather packets stored in our database for station/object K3MV-13. If no packets are shown the sender has not sent any weather packets the latest 10 day(s).
| Time | Temp. | Humidity | Pressure | Rain* | Wind** | Luminosity | Snow |
|---|---|---|---|---|---|---|---|
| 1777649215 | 12.78° C | 54% | 1012.6 hPa | 0 mm | - | 584 W/m² | - |
| 1777648912 | 12.78° C | 47% | 1012.7 hPa | 0 mm | - | 835 W/m² | - |
| 1777648610 | 12.22° C | 54% | 1012.7 hPa | 0 mm | - | 829 W/m² | - |
| 1777648306 | 12.22° C | 54% | 1012.9 hPa | 0 mm | - | 649 W/m² | - |
| 1777648003 | 12.22° C | 56% | 1012.9 hPa | 0 mm | - | 707 W/m² | - |
| 1777647699 | 11.11° C | 60% | 1013 hPa | 0 mm | - | 792 W/m² | - |
| 1777647395 | 11.67° C | 55% | 1013.1 hPa | 0 mm | - | 500 W/m² | - |
| 1777647093 | 11.67° C | 58% | 1013 hPa | 0 mm | - | 519 W/m² | - |
| 1777646789 | 11.11° C | 58% | 1013 hPa | 0 mm | - | 542 W/m² | - |
| 1777646490 | 10.56° C | 60% | 1013.1 hPa | 0 mm | - | 478 W/m² | - |
| 1777646186 | 11.11° C | 57% | 1013.2 hPa | 0 mm | - | 325 W/m² | - |
| 1777645884 | 11.67° C | 56% | 1012.9 hPa | 0 mm | - | 536 W/m² | - |
| 1777645581 | 11.11° C | 56% | 1013 hPa | 0 mm | - | 448 W/m² | - |
| 1777645277 | 11.11° C | 56% | 1013 hPa | 0 mm | - | 591 W/m² | - |
| 1777644973 | 11.11° C | 53% | 1013.2 hPa | 0 mm | - | 592 W/m² | - |
| 1777644671 | 11.11° C | 62% | 1013.1 hPa | 0 mm | - | 588 W/m² | - |
| 1777644366 | 10.56° C | 61% | 1013.4 hPa | 0 mm | - | 541 W/m² | - |
| 1777644063 | 10° C | 69% | 1013.2 hPa | 0 mm | - | 526 W/m² | - |
| 1777643760 | 10° C | 72% | 1013.3 hPa | 0 mm | - | 495 W/m² | - |
| 1777643457 | 8.89° C | 80% | 1013.4 hPa | 0 mm | - | 428 W/m² | - |
| 1777643154 | 7.78° C | 82% | 1013.4 hPa | 0 mm | - | 413 W/m² | - |
| 1777642850 | 7.22° C | 88% | 1013.5 hPa | 0 mm | - | 376 W/m² | - |
| 1777642548 | 6.67° C | 90% | 1013.3 hPa | 0 mm | - | 180 W/m² | - |
| 1777642244 | 6.67° C | 94% | 1013.7 hPa | 0 mm | - | 347 W/m² | - |
| 1777641942 | 6.11° C | 96% | 1013.5 hPa | 0 mm | - | 433 W/m² | - |
* Rain latest hour (hover to see other rain measurements)
** Current wind speed in m/s (hover to see current wind gust speed)